Darstellungsparameter: Aktuell verwendete Einstellungen:
Skalierung der Graphiken ... ?
xyx+y,   Skalierungsfaktor:      Skalierung: Modus: x, Faktor: 1
Darstellungszeitraum ... ?
Vom - - bis: - -   Zeitraum: 07.05.2021 - 07.05.2021
Min/Max/Avg-Anzeige ... ?
Zeige MMA aktuell
Zeige MMA Monat
Zeige MMA alles
Zeige --A aktuell
Zeige --A Monat
Zeige --A alles
Keine MMA-Anzeige
MMA:
Keine MMA-Graphiken
MMA-Basis: 07.05.2021 - 07.05.2021
Quicknavigation für Darstellung... ?
Tage:      1T, 2T, 3T, 5T -1T -2T -3T -5T +1T +2T +3T +5T
Wochen: 1W, 2W, 3W -1W -2W -3W +1W +2W +3W
Monate: 1M, 3M, 6M -1M -3M -6M +1M +3M +6M
Jahre:    1J, 3J, 5J, 10J -1J -3J -5J -10J +1J +3J +5J +10J
Nutze für die Darstellung ... ?
Originaldaten oder Mittelwerte auf ...
Stundenbasis Tagesbasis Wochenbasis
Monatsbasis Jahresbasis      Datenbasis: Original-Daten
Darstellen als:
Statistik (Auto) Statistik J:M      Darstellung:
Zur Graphik,    zurück zur Übersicht aller Sensoren.
 
Tabellarische Datenbersicht: ?
 
Sensor: Nr:Datum:Temp:Feuchte:
Aussen-T/F 1 07-05-2021 00:05:17 6 C 48 %
2 07-05-2021 00:15:17 6.1 C 48 %
3 07-05-2021 00:25:18 6.2 C 48 %
4 07-05-2021 00:35:18 6.1 C 48 %
5 07-05-2021 00:45:17 6.1 C 48 %
6 07-05-2021 00:55:18 6.1 C 48 %
7 07-05-2021 01:05:17 6.2 C 48 %
8 07-05-2021 01:15:18 6.2 C 48 %
9 07-05-2021 01:25:18 6.1 C 48 %
10 07-05-2021 01:35:17 6.1 C 48 %
11 07-05-2021 01:45:17 6 C 48 %
12 07-05-2021 01:55:17 5.9 C 49 %
13 07-05-2021 02:05:17 5.9 C 49 %
14 07-05-2021 02:15:17 5.9 C 49 %
15 07-05-2021 02:25:18 5.9 C 49 %
16 07-05-2021 02:35:18 5.9 C 49 %
17 07-05-2021 02:45:18 5.8 C 47 %
18 07-05-2021 02:55:18 5.4 C 46 %
19 07-05-2021 03:05:17 5.5 C 46 %
20 07-05-2021 03:15:17 5.2 C 46 %
21 07-05-2021 03:25:17 5 C 48 %
22 07-05-2021 03:35:18 4.9 C 49 %
23 07-05-2021 03:45:18 4.8 C 50 %
24 07-05-2021 03:55:18 4.4 C 49 %
25 07-05-2021 04:05:18 4.1 C 50 %
Sensor: Nr:Datum:Temp:Feuchte:
Aussen-T/F 26 07-05-2021 04:15:17 3.7 C 50 %
27 07-05-2021 04:25:17 3.9 C 51 %
28 07-05-2021 04:35:17 4.1 C 50 %
29 07-05-2021 04:45:17 3.8 C 50 %
30 07-05-2021 04:55:17 4.2 C 49 %
31 07-05-2021 05:05:17 4.4 C 49 %
32 07-05-2021 05:15:17 4.5 C 49 %
33 07-05-2021 05:25:17 4.4 C 49 %
34 07-05-2021 05:35:17 4.1 C 49 %
35 07-05-2021 05:45:17 3.7 C 50 %
36 07-05-2021 05:55:17 3.4 C 50 %
37 07-05-2021 06:05:17 3.2 C 50 %
38 07-05-2021 06:15:17 3.3 C 50 %
39 07-05-2021 06:25:18 3 C 50 %
40 07-05-2021 06:35:17 3 C 50 %
41 07-05-2021 06:45:18 2.9 C 50 %
42 07-05-2021 06:55:18 2.9 C 50 %
43 07-05-2021 07:05:18 2.9 C 50 %
44 07-05-2021 07:15:18 2.9 C 50 %
45 07-05-2021 07:25:18 3.1 C 50 %
46 07-05-2021 07:35:18 3.3 C 50 %
47 07-05-2021 07:45:17 3.5 C 50 %
48 07-05-2021 07:55:17 3.7 C 49 %
49 07-05-2021 08:05:18 3.7 C 48 %
50 07-05-2021 08:15:18 3.8 C 48 %
Sensor: Nr:Datum:Temp:Feuchte:
Aussen-T/F 51 07-05-2021 08:25:18 4 C 48 %
52 07-05-2021 08:35:17 4.4 C 47 %
53 07-05-2021 08:45:17 4.7 C 45 %
54 07-05-2021 08:55:17 5.1 C 42 %
55 07-05-2021 09:05:17 5.5 C 42 %
56 07-05-2021 09:15:17 6.2 C 41 %
57 07-05-2021 09:25:17 6.6 C 40 %
58 07-05-2021 09:35:17 7.1 C 38 %
59 07-05-2021 09:45:17 7.5 C 38 %
60 07-05-2021 09:55:17 7.7 C 38 %
61 07-05-2021 10:05:17 8.3 C 37 %
62 07-05-2021 10:15:18 8.6 C 36 %
63 07-05-2021 10:25:18 8.4 C 35 %
64 07-05-2021 10:35:17 7.3 C 37 %
65 07-05-2021 10:45:17 5 C 42 %
66 07-05-2021 10:55:17 5.6 C 42 %
67 07-05-2021 11:05:17 6.4 C 41 %
68 07-05-2021 11:15:17 7.2 C 39 %
69 07-05-2021 11:25:17 6.8 C 39 %
70 07-05-2021 11:35:17 7 C 37 %
71 07-05-2021 11:45:17 7 C 37 %
72 07-05-2021 11:55:17 7.5 C 37 %
73 07-05-2021 12:05:17 7 C 37 %
74 07-05-2021 12:15:17 7 C 37 %
75 07-05-2021 12:25:18 7.1 C 37 %
Sensor: Nr:Datum:Temp:Feuchte:
Aussen-T/F 76 07-05-2021 12:35:18 7.2 C 37 %
77 07-05-2021 12:45:17 6.8 C 37 %
78 07-05-2021 12:55:18 7.1 C 37 %
79 07-05-2021 13:05:18 7.3 C 37 %
80 07-05-2021 13:15:18 6.9 C 37 %
81 07-05-2021 13:25:18 7.3 C 36 %
82 07-05-2021 13:35:17 8.4 C 36 %
83 07-05-2021 13:45:17 7.9 C 35 %
84 07-05-2021 13:55:17 8.6 C 34 %
85 07-05-2021 14:05:17 9.9 C 33 %
86 07-05-2021 14:15:17 9.6 C 31 %
87 07-05-2021 14:25:17 11.5 C 28 %
88 07-05-2021 14:35:17 13.9 C 25 %
89 07-05-2021 14:45:17 10.7 C 28 %
90 07-05-2021 14:55:17 9.5 C 30 %
91 07-05-2021 15:05:17 10.2 C 30 %
92 07-05-2021 15:15:17 10.9 C 29 %
93 07-05-2021 15:25:18 10.7 C 28 %
94 07-05-2021 15:35:17 12.4 C 27 %
95 07-05-2021 15:45:18 11.4 C 27 %
96 07-05-2021 15:55:18 16 C 21 %
97 07-05-2021 16:05:17 14.9 C 20 %
98 07-05-2021 16:15:17 16.1 C 20 %
99 07-05-2021 16:25:17 16.4 C 20 %
100 07-05-2021 16:35:17 18.2 C 20 %
Sensor: Nr:Datum:Temp:Feuchte:
Aussen-T/F 101 07-05-2021 16:45:17 17 C 20 %
102 07-05-2021 16:55:17 18 C 20 %
103 07-05-2021 17:05:17 16.8 C 20 %
104 07-05-2021 17:15:18 16.2 C 20 %
105 07-05-2021 17:25:18 15.7 C 20 %
106 07-05-2021 17:35:17 16.4 C 20 %
107 07-05-2021 17:45:18 14.2 C 20 %
108 07-05-2021 17:55:18 15 C 20 %
109 07-05-2021 18:05:17 16 C 20 %
110 07-05-2021 18:15:17 12.8 C 20 %
111 07-05-2021 18:25:17 12.7 C 22 %
112 07-05-2021 18:35:17 12.6 C 22 %
113 07-05-2021 18:45:17 11.8 C 24 %
114 07-05-2021 18:55:17 11.9 C 24 %
115 07-05-2021 19:05:17 12.6 C 23 %
116 07-05-2021 19:15:17 12 C 21 %
117 07-05-2021 19:25:17 11.2 C 25 %
118 07-05-2021 19:35:17 11.4 C 25 %
119 07-05-2021 19:45:17 11.4 C 25 %
120 07-05-2021 19:55:17 11.3 C 25 %
121 07-05-2021 20:05:18 10.8 C 25 %
122 07-05-2021 20:15:17 10.1 C 30 %
123 07-05-2021 20:25:17 9.4 C 33 %
124 07-05-2021 20:35:17 8.9 C 33 %
125 07-05-2021 20:45:17 8.4 C 32 %
Sensor: Nr:Datum:Temp:Feuchte:
Aussen-T/F 126 07-05-2021 20:55:17 8.1 C 33 %
127 07-05-2021 21:05:17 8 C 34 %
128 07-05-2021 21:15:17 8 C 34 %
129 07-05-2021 21:25:17 7.8 C 36 %
130 07-05-2021 21:35:18 7.6 C 36 %
131 07-05-2021 21:45:18 7.4 C 36 %
132 07-05-2021 21:55:18 7.3 C 37 %
133 07-05-2021 22:05:17 7.1 C 38 %
134 07-05-2021 22:15:17 6.7 C 39 %
135 07-05-2021 22:25:17 6.5 C 39 %
136 07-05-2021 22:35:17 6.1 C 40 %
137 07-05-2021 22:45:17 5.6 C 41 %
138 07-05-2021 22:55:17 5.4 C 41 %
139 07-05-2021 23:05:17 5 C 42 %
140 07-05-2021 23:15:17 5.2 C 42 %
141 07-05-2021 23:25:17 4.9 C 42 %
142 07-05-2021 23:35:17 4.3 C 42 %
143 07-05-2021 23:45:17 4.3 C 43 %
144 07-05-2021 23:55:17 3.8 C 44 %
Sensor: Nr:Datum:Temp:Feuchte:
G-T/H 1 07-05-2021 00:05:17 11.9 C 65 %
2 07-05-2021 00:15:17 11.9 C 65 %
3 07-05-2021 00:25:18 11.9 C 65 %
4 07-05-2021 00:35:18 11.9 C 65 %
5 07-05-2021 00:45:17 11.9 C 65 %
6 07-05-2021 00:55:18 11.8 C 65 %
7 07-05-2021 01:05:17 11.8 C 65 %
8 07-05-2021 01:15:18 11.8 C 65 %
9 07-05-2021 01:25:18 11.8 C 65 %
10 07-05-2021 01:35:17 11.8 C 65 %
11 07-05-2021 01:45:17 11.8 C 65 %
12 07-05-2021 01:55:17 11.8 C 65 %
13 07-05-2021 02:05:17 11.8 C 65 %
14 07-05-2021 02:15:17 11.8 C 65 %
15 07-05-2021 02:25:18 11.8 C 65 %
16 07-05-2021 02:35:18 11.8 C 65 %
17 07-05-2021 02:45:18 11.8 C 65 %
18 07-05-2021 02:55:18 11.8 C 65 %
19 07-05-2021 03:05:17 11.8 C 65 %
20 07-05-2021 03:15:17 11.7 C 65 %
21 07-05-2021 03:25:17 11.7 C 65 %
22 07-05-2021 03:35:18 11.7 C 65 %
23 07-05-2021 03:45:18 11.7 C 65 %
24 07-05-2021 03:55:18 11.7 C 65 %
25 07-05-2021 04:05:18 11.7 C 65 %
Sensor: Nr:Datum:Temp:Feuchte:
G-T/H 26 07-05-2021 04:15:17 11.7 C 65 %
27 07-05-2021 04:25:17 11.6 C 65 %
28 07-05-2021 04:35:17 11.6 C 65 %
29 07-05-2021 04:45:17 11.6 C 65 %
30 07-05-2021 04:55:17 11.6 C 65 %
31 07-05-2021 05:05:17 11.6 C 65 %
32 07-05-2021 05:15:17 11.6 C 65 %
33 07-05-2021 05:25:17 11.6 C 65 %
34 07-05-2021 05:35:17 11.5 C 65 %
35 07-05-2021 05:45:17 11.6 C 65 %
36 07-05-2021 05:55:17 11.5 C 65 %
37 07-05-2021 06:05:17 11.5 C 65 %
38 07-05-2021 06:15:17 11.5 C 65 %
39 07-05-2021 06:25:18 11.5 C 65 %
40 07-05-2021 06:35:17 11.5 C 65 %
41 07-05-2021 06:45:18 11.5 C 65 %
42 07-05-2021 06:55:18 11.4 C 65 %
43 07-05-2021 07:05:18 11.4 C 65 %
44 07-05-2021 07:15:18 11.4 C 65 %
45 07-05-2021 07:25:18 11.3 C 65 %
46 07-05-2021 07:35:18 11.3 C 65 %
47 07-05-2021 07:45:17 11.3 C 64 %
48 07-05-2021 07:55:17 11.3 C 64 %
49 07-05-2021 08:05:18 11.3 C 64 %
50 07-05-2021 08:15:18 11.3 C 64 %
Sensor: Nr:Datum:Temp:Feuchte:
G-T/H 51 07-05-2021 08:25:18 11.2 C 64 %
52 07-05-2021 08:35:17 11.2 C 64 %
53 07-05-2021 08:45:17 11.2 C 64 %
54 07-05-2021 08:55:17 11.2 C 64 %
55 07-05-2021 09:05:17 11.2 C 64 %
56 07-05-2021 09:15:17 11.2 C 64 %
57 07-05-2021 09:25:17 11.2 C 64 %
58 07-05-2021 09:35:17 11.2 C 64 %
59 07-05-2021 09:45:17 11.2 C 65 %
60 07-05-2021 09:55:17 11.2 C 65 %
61 07-05-2021 10:05:17 11.2 C 65 %
62 07-05-2021 10:15:18 11.2 C 65 %
63 07-05-2021 10:25:18 11.2 C 65 %
64 07-05-2021 10:35:17 11.2 C 65 %
65 07-05-2021 10:45:17 11.2 C 65 %
66 07-05-2021 10:55:17 11.1 C 65 %
67 07-05-2021 11:05:17 11.1 C 65 %
68 07-05-2021 11:15:17 11.1 C 65 %
69 07-05-2021 11:25:17 11.1 C 65 %
70 07-05-2021 11:35:17 11.1 C 65 %
71 07-05-2021 11:45:17 11.1 C 65 %
72 07-05-2021 11:55:17 11.1 C 65 %
73 07-05-2021 12:05:17 11.1 C 65 %
74 07-05-2021 12:15:17 11.1 C 65 %
75 07-05-2021 12:25:18 11.1 C 65 %
Sensor: Nr:Datum:Temp:Feuchte:
G-T/H 76 07-05-2021 12:35:18 11.1 C 65 %
77 07-05-2021 12:45:17 11.1 C 65 %
78 07-05-2021 12:55:18 11.1 C 65 %
79 07-05-2021 13:05:18 11.1 C 65 %
80 07-05-2021 13:15:18 11.1 C 65 %
81 07-05-2021 13:25:18 11.1 C 65 %
82 07-05-2021 13:35:17 11.1 C 65 %
83 07-05-2021 13:45:17 11.1 C 65 %
84 07-05-2021 13:55:17 11.1 C 65 %
85 07-05-2021 14:05:17 11.1 C 65 %
86 07-05-2021 14:15:17 11.1 C 65 %
87 07-05-2021 14:25:17 11.1 C 64 %
88 07-05-2021 14:35:17 11.1 C 64 %
89 07-05-2021 14:45:17 11.1 C 64 %
90 07-05-2021 14:55:17 11.1 C 64 %
91 07-05-2021 15:05:17 11.1 C 64 %
92 07-05-2021 15:15:17 11.1 C 64 %
93 07-05-2021 15:25:18 11.1 C 64 %
94 07-05-2021 15:35:17 11.1 C 64 %
95 07-05-2021 15:45:18 11.1 C 64 %
96 07-05-2021 15:55:18 11.1 C 64 %
97 07-05-2021 16:05:17 11.1 C 64 %
98 07-05-2021 16:15:17 11.1 C 64 %
99 07-05-2021 16:25:17 11.1 C 64 %
100 07-05-2021 16:35:17 11.1 C 64 %
Sensor: Nr:Datum:Temp:Feuchte:
G-T/H 101 07-05-2021 16:45:17 11.1 C 63 %
102 07-05-2021 16:55:17 11.1 C 63 %
103 07-05-2021 17:05:17 11.1 C 63 %
104 07-05-2021 17:15:18 11.1 C 62 %
105 07-05-2021 17:25:18 11.2 C 62 %
106 07-05-2021 17:35:17 11.2 C 62 %
107 07-05-2021 17:45:18 11.2 C 62 %
108 07-05-2021 17:55:18 11.2 C 62 %
109 07-05-2021 18:05:17 11.2 C 62 %
110 07-05-2021 18:15:17 11.2 C 62 %
111 07-05-2021 18:25:17 11.3 C 62 %
112 07-05-2021 18:35:17 11.3 C 61 %
113 07-05-2021 18:45:17 11.3 C 61 %
114 07-05-2021 18:55:17 11.3 C 62 %
115 07-05-2021 19:05:17 11.3 C 62 %
116 07-05-2021 19:15:17 11.3 C 62 %
117 07-05-2021 19:25:17 11.3 C 62 %
118 07-05-2021 19:35:17 11.4 C 62 %
119 07-05-2021 19:45:17 11.4 C 62 %
120 07-05-2021 19:55:17 11.4 C 62 %
121 07-05-2021 20:05:18 11.4 C 62 %
122 07-05-2021 20:15:17 11.4 C 61 %
123 07-05-2021 20:25:17 11.4 C 61 %
124 07-05-2021 20:35:17 11.3 C 61 %
125 07-05-2021 20:45:17 11.4 C 61 %
Sensor: Nr:Datum:Temp:Feuchte:
G-T/H 126 07-05-2021 20:55:17 11.3 C 61 %
127 07-05-2021 21:05:17 11.3 C 61 %
128 07-05-2021 21:15:17 11.3 C 61 %
129 07-05-2021 21:25:17 11.3 C 62 %
130 07-05-2021 21:35:18 11.3 C 62 %
131 07-05-2021 21:45:18 11.3 C 62 %
132 07-05-2021 21:55:18 11.3 C 62 %
133 07-05-2021 22:05:17 11.3 C 62 %
134 07-05-2021 22:15:17 11.3 C 62 %
135 07-05-2021 22:25:17 11.3 C 62 %
136 07-05-2021 22:35:17 11.3 C 63 %
137 07-05-2021 22:45:17 11.3 C 63 %
138 07-05-2021 22:55:17 11.3 C 63 %
139 07-05-2021 23:05:17 11.2 C 63 %
140 07-05-2021 23:15:17 11.3 C 63 %
141 07-05-2021 23:25:17 11.3 C 63 %
142 07-05-2021 23:35:17 11.2 C 63 %
143 07-05-2021 23:45:17 11.2 C 63 %
144 07-05-2021 23:55:17 11.2 C 63 %

Legende:
   Min
   Max


Maximal/Minimal-Werte vom 07.05.2021 - 07.05.2021

Sensor Min Max Avg
Temp
(Aussen-T/F)
2.9 °C
07-05-2021  06:45:18
18.2 °C
07-05-2021  16:35:17
7.71 °C
Feuchte
(Aussen-T/F)
20 %
07-05-2021  16:05:17
51 %
07-05-2021  04:25:17
38.23 %
Temp
(G-T/H)
11.1 °C
07-05-2021  10:55:17
11.9 °C
07-05-2021  00:05:17
11.35 °C
Feuchte
(G-T/H)
61 %
07-05-2021  18:35:17
65 %
07-05-2021  00:05:17
63.92 %

Die Daten stammen von einer Davis Vantage Pro 2 Wetter-Station und werden unter Linux mit der Software wview2wettercgi und aufbereitet. Alle Angaben erfolgen ohne Gewähr für ihre Vollständigkeit oder Richtigkeit.
Kontakt: Rainer Krienke krienke@uni-koblenz.de . Meine Webseiten an der Uni Koblenz oder privat.
Version: $Revision: 0.78 $